createdAt,value
2019-03-12T00:01:23.933Z,61.42
2019-03-12T00:03:52.550Z,66.28
2019-03-12T00:06:20.833Z,65.95
2019-03-12T00:08:49.534Z,67.90
2019-03-12T00:11:17.586Z,66.02
2019-03-12T00:13:45.860Z,66.57
2019-03-12T00:16:14.557Z,64.17
2019-03-12T00:18:42.829Z,63.20
2019-03-12T00:21:11.076Z,61.35
2019-03-12T00:23:39.413Z,57.73
2019-03-12T00:26:08.069Z,59.40
2019-03-12T00:28:36.752Z,51.02
2019-03-12T00:31:04.711Z,54.45
2019-03-12T00:33:32.693Z,64.32
2019-03-12T00:36:01.543Z,64.45
2019-03-12T00:38:29.781Z,62.35
2019-03-12T00:40:58.038Z,60.70
2019-03-12T00:43:26.728Z,54.83
2019-03-12T00:45:54.685Z,61.28
2019-03-12T00:48:23.273Z,59.33
2019-03-12T00:50:51.555Z,48.08
2019-03-12T00:53:19.928Z,58.20
2019-03-12T00:55:48.296Z,55.23
2019-03-12T00:58:16.274Z,53.10
2019-03-12T01:00:44.875Z,51.55
2019-03-12T01:03:12.853Z,49.85
2019-03-12T01:05:41.108Z,45.00
2019-03-12T01:08:09.500Z,42.03
2019-03-12T01:10:37.845Z,47.50
2019-03-12T01:13:14.149Z,44.13
2019-03-12T01:15:42.401Z,44.40
2019-03-12T01:18:13.665Z,44.73
2019-03-12T01:20:41.014Z,46.23
2019-03-12T01:23:09.810Z,41.47
2019-03-12T01:25:38.236Z,39.38
2019-03-12T01:28:06.561Z,40.20
2019-03-12T01:30:34.526Z,38.83
2019-03-12T01:33:03.012Z,37.05
2019-03-12T01:35:30.957Z,39.25
2019-03-12T01:37:59.735Z,38.45
2019-03-12T01:40:28.183Z,37.10
2019-03-12T01:42:56.156Z,35.88
2019-03-12T01:45:24.183Z,36.73
2019-03-12T01:47:52.757Z,33.28
2019-03-12T01:50:21.016Z,29.57
2019-03-12T01:52:48.993Z,33.38
2019-03-12T01:55:16.966Z,37.90
2019-03-12T01:57:44.903Z,34.10
2019-03-12T02:00:13.709Z,33.65
2019-03-12T02:02:42.077Z,38.60
2019-03-12T02:05:10.398Z,31.02
2019-03-12T02:07:38.686Z,33.42
2019-03-12T02:10:07.144Z,40.27
2019-03-12T02:12:35.450Z,33.20
2019-03-12T02:15:03.458Z,30.55
2019-03-12T02:17:31.998Z,27.35
2019-03-12T02:19:59.962Z,30.62
2019-03-12T02:22:27.961Z,29.65
2019-03-12T02:24:56.217Z,30.23
2019-03-12T02:27:24.152Z,28.55
2019-03-12T02:29:53.468Z,23.52
2019-03-12T02:32:21.799Z,28.55
2019-03-12T02:34:49.742Z,33.95
2019-03-12T02:37:17.729Z,26.20
2019-03-12T02:39:46.344Z,27.95
2019-03-12T02:42:14.661Z,28.65
2019-03-12T02:44:42.922Z,29.70
2019-03-12T02:47:11.254Z,28.87
2019-03-12T02:49:39.493Z,32.42
2019-03-12T02:52:07.490Z,28.10
2019-03-12T02:54:35.738Z,41.40
2019-03-12T02:57:04.010Z,54.20
2019-03-12T02:59:32.087Z,97.30
2019-03-12T03:02:00.054Z,124.00
2019-03-12T03:04:28.034Z,281.68
2019-03-12T03:07:21.820Z,341.50
2019-03-12T03:09:50.390Z,468.70
2019-03-12T03:12:18.658Z,177.00
2019-03-12T03:14:46.942Z,460.23
2019-03-12T03:17:16.649Z,595.98
2019-03-12T03:19:44.908Z,405.48
2019-03-12T03:22:13.515Z,378.23
2019-03-12T03:24:41.493Z,443.43
2019-03-12T03:27:09.483Z,421.80
2019-03-12T03:29:37.464Z,507.63
2019-03-12T03:32:05.812Z,671.23
2019-03-12T03:34:34.513Z,945.52
2019-03-12T03:37:03.079Z,745.40
2019-03-12T03:39:31.757Z,734.50
2019-03-12T03:42:00.026Z,691.40
2019-03-12T03:44:28.414Z,618.10
2019-03-12T03:46:56.413Z,471.98
2019-03-12T03:49:24.642Z,564.02
2019-03-12T03:51:53.239Z,617.45
2019-03-12T03:54:21.524Z,395.30
2019-03-12T03:56:50.107Z,773.57
2019-03-12T03:59:18.647Z,409.98
2019-03-12T04:01:46.717Z,624.70
2019-03-12T04:04:14.682Z,551.80
2019-03-12T04:06:42.848Z,397.20
2019-03-12T04:09:11.408Z,788.87
2019-03-12T04:11:39.315Z,649.90
2019-03-12T04:14:07.640Z,574.27
2019-03-12T04:16:35.613Z,461.10
2019-03-12T04:19:03.657Z,475.43
2019-03-12T04:21:32.110Z,676.92
2019-03-12T04:24:00.340Z,554.02
2019-03-12T04:26:28.922Z,477.28
2019-03-12T04:28:57.307Z,291.57
2019-03-12T04:31:25.250Z,573.97
2019-03-12T04:34:18.838Z,427.52
2019-03-12T04:36:47.915Z,351.80
2019-03-12T04:39:15.912Z,569.52
2019-03-12T04:41:43.874Z,444.17
2019-03-12T04:44:12.456Z,529.62
2019-03-12T04:46:40.693Z,346.75
2019-03-12T04:49:08.937Z,635.13
2019-03-12T04:51:37.184Z,421.75
2019-03-12T04:54:05.135Z,232.65
2019-03-12T04:56:33.121Z,420.60
2019-03-12T04:59:01.718Z,103.07
2019-03-12T05:01:29.693Z,147.57
2019-03-12T05:03:58.017Z,144.47
2019-03-12T05:06:26.046Z,243.73
2019-03-12T05:08:54.034Z,142.98
2019-03-12T05:11:22.024Z,213.30
2019-03-12T05:14:09.385Z,580.45
2019-03-12T05:16:37.422Z,361.65
2019-03-12T05:19:05.726Z,331.85
2019-03-12T05:21:34.021Z,90.20
2019-03-12T05:24:02.005Z,136.43
2019-03-12T05:26:30.017Z,121.13
2019-03-12T05:28:58.505Z,96.92
2019-03-12T05:31:26.821Z,101.43
2019-03-12T05:33:54.773Z,104.23
2019-03-12T05:36:22.737Z,94.42
2019-03-12T05:38:51.040Z,89.60
2019-03-12T05:41:19.625Z,95.97
2019-03-12T05:43:47.897Z,125.50
2019-03-12T05:46:16.692Z,103.45
2019-03-12T05:48:44.961Z,91.42
2019-03-12T05:51:13.328Z,104.80
2019-03-12T05:53:46.428Z,83.70
2019-03-12T05:56:14.868Z,72.85
2019-03-12T05:58:42.817Z,96.17
2019-03-12T06:01:11.112Z,81.45
2019-03-12T06:03:39.355Z,72.80
2019-03-12T06:06:07.410Z,79.85
2019-03-12T06:08:35.448Z,80.15
2019-03-12T06:11:03.514Z,92.20
2019-03-12T06:13:31.452Z,63.73
2019-03-12T06:15:59.781Z,74.90
2019-03-12T06:18:27.749Z,87.42
2019-03-12T06:20:56.020Z,67.92
2019-03-12T06:23:23.990Z,72.62
2019-03-12T06:25:51.920Z,87.33
2019-03-12T06:28:19.924Z,91.10
2019-03-12T06:31:12.751Z,74.32
2019-03-12T06:34:14.855Z,72.22
2019-03-12T06:37:13.949Z,78.42
2019-03-12T06:39:50.420Z,76.85
2019-03-12T06:42:40.532Z,103.07
2019-03-12T06:45:18.741Z,67.90
2019-03-12T06:48:06.473Z,70.97
2019-03-12T06:50:49.912Z,71.37
2019-03-12T06:53:48.996Z,65.10
2019-03-12T06:56:25.369Z,69.80
2019-03-12T06:59:12.701Z,67.67
2019-03-12T07:02:15.298Z,57.63
2019-03-12T07:04:51.720Z,63.28
2019-03-12T07:07:41.657Z,53.33
2019-03-12T07:10:20.605Z,55.70
2019-03-12T07:12:59.066Z,54.85
2019-03-12T07:15:35.351Z,48.28
2019-03-12T07:18:31.579Z,49.30
2019-03-12T07:21:18.898Z,49.58
2019-03-12T07:24:00.086Z,47.05
2019-03-12T07:26:53.752Z,43.35
2019-03-12T07:29:43.869Z,44.50
2019-03-12T07:32:34.156Z,42.15
2019-03-12T07:35:12.815Z,44.00
2019-03-12T07:38:12.137Z,35.10
2019-03-12T07:40:53.835Z,40.73
2019-03-12T07:43:36.569Z,44.30
2019-03-12T07:46:18.562Z,34.83
2019-03-12T07:49:04.558Z,34.35
2019-03-12T07:51:57.684Z,32.93
2019-03-12T07:54:53.851Z,30.85
2019-03-12T07:57:44.767Z,33.57
2019-03-12T08:00:21.110Z,28.92
2019-03-12T08:03:26.576Z,23.32
2019-03-12T08:06:10.425Z,33.48
2019-03-12T08:08:56.322Z,31.45
2019-03-12T08:11:29.741Z,25.02
2019-03-12T08:14:08.760Z,27.50
2019-03-12T08:17:05.467Z,26.70
2019-03-12T08:19:52.460Z,25.90
2019-03-12T08:22:39.810Z,27.15
2019-03-12T08:25:35.937Z,20.65
2019-03-12T08:28:25.933Z,21.62
2019-03-12T08:31:09.559Z,20.72
2019-03-12T08:33:53.616Z,23.30
2019-03-12T08:36:34.954Z,20.52
2019-03-12T08:39:34.293Z,25.05
2019-03-12T08:42:11.909Z,24.05
2019-03-12T08:45:00.948Z,21.70
2019-03-12T08:47:50.785Z,19.05
2019-03-12T08:50:41.436Z,17.25
2019-03-12T08:53:31.614Z,18.48
2019-03-12T08:56:07.968Z,17.40
2019-03-12T08:59:05.261Z,14.10
2019-03-12T09:02:02.574Z,15.28
2019-03-12T09:04:48.736Z,15.17
2019-03-12T09:07:34.445Z,16.77
2019-03-12T09:10:24.789Z,13.05
2019-03-12T09:13:07.123Z,15.40
2019-03-12T09:16:11.857Z,26.25
2019-03-12T09:19:14.574Z,14.07
2019-03-12T09:22:00.002Z,14.38
2019-03-12T09:24:43.208Z,13.03
2019-03-12T09:27:44.013Z,14.55
2019-03-12T09:30:19.514Z,13.93
2019-03-12T09:32:57.208Z,10.68
2019-03-12T09:35:33.869Z,12.80
2019-03-12T09:38:21.197Z,14.40
2019-03-12T09:41:11.696Z,11.70
2019-03-12T09:43:55.023Z,13.90
2019-03-12T09:46:47.149Z,13.17
2019-03-12T09:49:35.200Z,12.60
2019-03-12T09:52:19.557Z,9.60
2019-03-12T09:55:13.842Z,12.40
2019-03-12T09:58:15.962Z,13.40
2019-03-12T10:01:18.329Z,13.83
2019-03-12T10:03:53.628Z,12.10
2019-03-12T10:06:40.138Z,11.38
2019-03-12T10:09:21.842Z,12.78
2019-03-12T10:12:09.574Z,14.60
2019-03-12T10:14:56.613Z,13.53
2019-03-12T10:17:42.309Z,12.20
2019-03-12T10:20:28.359Z,11.33
2019-03-12T10:23:15.444Z,10.85
2019-03-12T10:26:05.890Z,13.35
2019-03-12T10:28:59.355Z,10.50
2019-03-12T10:31:34.853Z,11.50
2019-03-12T10:34:37.082Z,13.68
2019-03-12T10:37:16.791Z,11.00
2019-03-12T10:40:16.920Z,10.08
2019-03-12T10:42:52.323Z,13.55
2019-03-12T10:45:27.222Z,13.78
2019-03-12T10:47:55.619Z,9.70
2019-03-12T10:50:23.723Z,12.37
2019-03-12T10:52:52.116Z,13.00
2019-03-12T10:55:20.165Z,12.40
2019-03-12T10:57:48.218Z,14.83
2019-03-12T11:00:16.399Z,16.17
2019-03-12T11:02:44.859Z,15.50
2019-03-12T11:05:13.851Z,11.48
2019-03-12T11:07:41.864Z,12.37
2019-03-12T11:10:10.705Z,10.98
2019-03-12T11:12:39.135Z,9.95
2019-03-12T11:15:07.784Z,11.00
2019-03-12T11:17:48.448Z,13.80
2019-03-12T11:20:06.062Z,10.23
2019-03-12T11:22:34.444Z,14.28
2019-03-12T11:25:02.678Z,11.78
2019-03-12T11:27:31.331Z,10.10
2019-03-12T11:29:59.795Z,12.80
2019-03-12T11:32:27.835Z,11.45
2019-03-12T11:34:55.868Z,10.25
2019-03-12T11:37:23.976Z,11.15
2019-03-12T11:39:52.012Z,12.53
2019-03-12T11:42:20.072Z,11.93
2019-03-12T11:44:48.421Z,14.63
2019-03-12T11:47:16.505Z,10.05
2019-03-12T11:49:44.879Z,11.95
2019-03-12T11:54:56.172Z,16.42
2019-03-12T11:57:24.242Z,13.17
2019-03-12T11:59:52.237Z,13.53
2019-03-12T12:02:20.420Z,12.45
2019-03-12T12:04:48.805Z,11.37
2019-03-12T12:07:16.990Z,11.73
2019-03-12T12:09:45.672Z,10.35
2019-03-12T12:12:14.019Z,11.48
2019-03-12T12:14:42.165Z,11.50
2019-03-12T12:17:10.877Z,12.23
2019-03-12T12:19:38.944Z,12.15
2019-03-12T12:22:07.637Z,13.58
2019-03-12T12:24:35.935Z,9.85
2019-03-12T12:27:04.291Z,10.28
2019-03-12T12:29:32.365Z,14.47
2019-03-12T12:32:00.741Z,13.93
2019-03-12T12:34:28.796Z,13.38
2019-03-12T12:36:56.877Z,13.18
2019-03-12T12:39:25.169Z,12.20
2019-03-12T12:41:53.643Z,14.13
2019-03-12T12:44:22.008Z,11.95
2019-03-12T12:46:50.069Z,13.35
2019-03-12T12:49:18.138Z,10.55
2019-03-12T12:51:46.182Z,11.90
2019-03-12T12:54:14.252Z,9.60
2019-03-12T12:56:42.583Z,14.10
2019-03-12T12:59:11.293Z,14.23
2019-03-12T13:01:39.670Z,13.00
2019-03-12T13:04:07.711Z,15.53
2019-03-12T13:06:36.125Z,14.85
2019-03-12T13:09:05.820Z,10.78
2019-03-12T13:11:34.205Z,12.37
2019-03-12T13:14:04.281Z,9.85
2019-03-12T13:16:32.588Z,12.18
2019-03-12T13:19:00.821Z,9.25
2019-03-12T13:21:28.834Z,9.70
2019-03-12T13:23:56.908Z,10.43
2019-03-12T13:26:25.106Z,10.48
2019-03-12T13:28:53.468Z,8.87
2019-03-12T13:31:21.901Z,10.72
2019-03-12T13:33:50.169Z,11.28
2019-03-12T13:36:18.999Z,12.13
2019-03-12T13:38:48.563Z,10.82
2019-03-12T13:41:17.040Z,10.18
2019-03-12T13:43:45.931Z,14.07
2019-03-12T13:46:14.817Z,10.10
2019-03-12T13:49:42.067Z,12.00
2019-03-12T13:52:10.156Z,9.10
2019-03-12T13:54:38.570Z,8.70
2019-03-12T13:57:07.486Z,9.40
2019-03-12T13:59:35.900Z,10.45
2019-03-12T14:02:04.074Z,12.23
2019-03-12T14:04:32.240Z,8.55
2019-03-12T14:07:00.300Z,9.68
2019-03-12T14:09:28.576Z,7.75
2019-03-12T14:11:59.100Z,10.60
2019-03-12T14:14:26.624Z,10.08
2019-03-12T14:16:54.969Z,9.18
2019-03-12T14:19:23.527Z,9.30
2019-03-12T14:21:51.959Z,8.98
2019-03-12T14:24:20.913Z,8.37
2019-03-12T14:26:49.467Z,6.97
2019-03-12T14:29:17.670Z,9.48
2019-03-12T14:31:46.298Z,7.37
2019-03-12T14:34:14.360Z,11.48
2019-03-12T14:36:42.619Z,8.90
2019-03-12T14:39:11.087Z,7.72
2019-03-12T14:41:39.498Z,10.03
2019-03-12T14:44:08.284Z,8.98
2019-03-12T14:46:36.426Z,11.48
2019-03-12T14:49:06.060Z,9.80
2019-03-12T14:51:41.920Z,10.13
2019-03-12T14:54:10.587Z,10.50
2019-03-12T14:56:38.784Z,9.68
2019-03-12T14:59:07.407Z,10.23
2019-03-12T15:01:35.732Z,12.40
2019-03-12T15:04:04.314Z,9.53
2019-03-12T15:06:33.387Z,8.85
2019-03-12T15:09:01.870Z,9.35
2019-03-12T15:11:30.520Z,11.50
2019-03-12T15:13:58.755Z,16.12
2019-03-12T15:16:27.088Z,10.63
2019-03-12T15:18:55.149Z,11.50
2019-03-12T15:21:23.550Z,11.17
2019-03-12T15:23:51.698Z,10.20
2019-03-12T15:26:19.935Z,11.80
2019-03-12T15:28:49.098Z,8.68
2019-03-12T15:31:17.860Z,13.48
2019-03-12T15:33:46.252Z,9.35
2019-03-12T15:36:14.715Z,8.90
2019-03-12T15:38:42.824Z,10.80
2019-03-12T15:41:11.599Z,11.55
2019-03-12T15:43:39.702Z,11.00
2019-03-12T15:46:08.092Z,12.87
2019-03-12T15:48:36.195Z,9.55
2019-03-12T15:51:04.772Z,8.60
2019-03-12T15:53:33.025Z,10.72
2019-03-12T15:56:01.652Z,10.30
2019-03-12T15:58:30.289Z,9.30
2019-03-12T16:00:58.537Z,7.35
2019-03-12T16:03:27.225Z,12.18
2019-03-12T16:05:55.315Z,8.00
2019-03-12T16:08:23.367Z,8.20
2019-03-12T16:10:57.805Z,10.43
2019-03-12T16:13:22.103Z,11.90
2019-03-12T16:15:50.268Z,8.50
2019-03-12T16:18:19.242Z,6.50
2019-03-12T16:20:47.806Z,8.35
2019-03-12T16:23:16.092Z,8.43
2019-03-12T16:25:44.211Z,8.45
2019-03-12T16:28:13.157Z,7.53
2019-03-12T16:30:41.526Z,8.35
2019-03-12T16:33:09.917Z,10.03
2019-03-12T16:35:39.578Z,9.05
2019-03-12T16:38:09.697Z,8.65
2019-03-12T16:40:38.298Z,7.85
2019-03-12T16:43:06.735Z,7.47
2019-03-12T16:45:35.139Z,7.05
2019-03-12T16:48:03.292Z,8.30
2019-03-12T16:50:31.385Z,6.03
2019-03-12T16:52:59.511Z,7.20
2019-03-12T16:55:27.852Z,9.40
2019-03-12T16:57:56.703Z,8.40
2019-03-12T17:00:25.405Z,6.78
2019-03-12T17:02:53.720Z,6.80
2019-03-12T17:05:25.990Z,10.43
2019-03-12T17:07:52.691Z,8.20
2019-03-12T17:10:21.283Z,11.30
2019-03-12T17:12:51.353Z,7.80
2019-03-12T17:15:19.552Z,8.30
2019-03-12T17:17:47.703Z,10.08
2019-03-12T17:20:15.940Z,6.60
2019-03-12T17:22:44.771Z,8.10
2019-03-12T17:25:13.086Z,44.67
2019-03-12T17:27:41.616Z,13.75
2019-03-12T17:30:12.201Z,10.50
2019-03-12T17:32:40.693Z,8.00
2019-03-12T17:35:09.948Z,7.67
2019-03-12T17:37:38.168Z,6.85
2019-03-12T17:40:07.722Z,8.13
2019-03-12T17:42:35.786Z,6.97
2019-03-12T17:45:04.039Z,7.62
2019-03-12T17:47:32.115Z,7.40
2019-03-12T17:50:00.171Z,7.00
2019-03-12T17:52:29.419Z,8.73
2019-03-12T17:54:57.549Z,10.72
2019-03-12T17:57:26.592Z,7.58
2019-03-12T17:59:55.215Z,8.63
2019-03-12T18:02:23.345Z,5.90
2019-03-12T18:04:51.452Z,7.45
2019-03-12T18:07:19.854Z,13.47
2019-03-12T18:09:48.429Z,5.80
2019-03-12T18:12:16.479Z,7.95
2019-03-12T18:14:44.572Z,8.55
2019-03-12T18:17:13.012Z,8.03
2019-03-12T18:19:41.394Z,6.25
2019-03-12T18:22:09.923Z,6.22
2019-03-12T18:24:40.370Z,8.13
2019-03-12T18:27:08.619Z,9.08
2019-03-12T18:29:36.805Z,8.68
2019-03-12T18:32:05.091Z,6.97
2019-03-12T18:34:33.297Z,7.70
2019-03-12T18:37:01.445Z,8.10
2019-03-12T18:39:31.256Z,8.13
2019-03-12T18:41:59.777Z,7.20
2019-03-12T18:44:27.993Z,7.90
2019-03-12T18:46:56.486Z,8.73
2019-03-12T18:49:24.902Z,8.13
2019-03-12T18:51:52.964Z,8.83
2019-03-12T18:54:21.096Z,6.40
2019-03-12T18:56:49.652Z,7.55
2019-03-12T18:59:19.726Z,9.00
2019-03-12T19:01:47.879Z,13.40
2019-03-12T19:04:15.996Z,7.97
2019-03-12T19:06:45.354Z,6.95
2019-03-12T19:09:13.388Z,5.58
2019-03-12T19:11:42.508Z,7.60
2019-03-12T19:14:11.059Z,7.42
2019-03-12T19:16:39.756Z,9.68
2019-03-12T19:19:07.834Z,5.72
2019-03-12T19:21:36.247Z,8.50
2019-03-12T19:24:04.306Z,8.83
2019-03-12T19:26:32.393Z,6.00
2019-03-12T19:29:00.411Z,8.23
2019-03-12T19:31:46.516Z,6.05
2019-03-12T19:34:19.011Z,5.87
2019-03-12T19:36:47.575Z,7.15
2019-03-12T19:39:17.807Z,6.17
2019-03-12T19:41:46.186Z,7.10
2019-03-12T19:44:14.286Z,6.97
2019-03-12T19:46:42.320Z,6.20
2019-03-12T19:49:10.698Z,4.22
2019-03-12T19:51:38.985Z,6.28
2019-03-12T19:54:07.042Z,11.73
2019-03-12T19:56:35.225Z,6.80
2019-03-12T19:59:03.294Z,7.20
2019-03-12T20:01:33.106Z,7.30
2019-03-12T20:04:03.129Z,6.37
2019-03-12T20:06:31.384Z,7.55
2019-03-12T20:08:59.601Z,6.60
2019-03-12T20:11:45.950Z,8.20
2019-03-12T20:14:39.848Z,8.38
2019-03-12T20:17:26.901Z,10.40
2019-03-12T20:20:12.715Z,5.27
2019-03-12T20:22:58.580Z,6.30
2019-03-12T20:25:59.967Z,7.20
2019-03-12T20:28:56.187Z,6.40
2019-03-12T20:31:42.299Z,6.90
2019-03-12T20:34:29.406Z,8.33
2019-03-12T20:37:15.992Z,6.87
2019-03-12T20:40:12.633Z,6.30
2019-03-12T20:42:58.617Z,6.43
2019-03-12T20:45:40.704Z,6.90
2019-03-12T20:48:32.873Z,7.77
2019-03-12T20:51:35.457Z,7.00
2019-03-12T20:54:21.397Z,5.40
2019-03-12T20:57:22.180Z,7.10
2019-03-12T21:00:12.457Z,6.67
2019-03-12T21:02:49.271Z,5.17
2019-03-12T21:05:36.737Z,7.08
2019-03-12T21:08:32.045Z,6.28
2019-03-12T21:11:37.675Z,7.47
2019-03-12T21:14:21.641Z,6.25
2019-03-12T21:16:59.182Z,7.40
2019-03-12T21:19:58.743Z,5.35
2019-03-12T21:22:40.889Z,5.65
2019-03-12T21:25:31.372Z,5.83
2019-03-12T21:28:30.866Z,5.62
2019-03-12T21:30:59.237Z,4.05
2019-03-12T21:33:27.287Z,5.28
2019-03-12T21:35:55.522Z,7.50
2019-03-12T21:38:23.857Z,4.65
2019-03-12T21:40:52.248Z,4.10
2019-03-12T21:43:20.661Z,5.83
2019-03-12T21:45:48.881Z,4.53
2019-03-12T21:48:16.940Z,4.65
2019-03-12T21:50:44.998Z,5.97
2019-03-12T21:53:13.420Z,4.00
2019-03-12T21:55:41.804Z,5.03
2019-03-12T21:58:10.088Z,4.28
2019-03-12T22:00:38.396Z,4.28
2019-03-12T22:03:06.507Z,4.05
2019-03-12T22:05:35.003Z,4.10
2019-03-12T22:08:03.328Z,4.42
2019-03-12T22:10:31.487Z,4.53
2019-03-12T22:12:59.948Z,4.58
2019-03-12T22:15:29.680Z,4.00
2019-03-12T22:17:58.447Z,4.75
2019-03-12T22:20:26.481Z,5.65
2019-03-12T22:23:00.340Z,5.92
2019-03-12T22:25:28.403Z,5.33
2019-03-12T22:27:56.455Z,4.93
2019-03-12T22:30:25.517Z,5.87
2019-03-12T22:32:53.567Z,4.47
2019-03-12T22:35:22.240Z,4.20
2019-03-12T22:37:50.671Z,5.03
2019-03-12T22:40:18.737Z,5.03
2019-03-12T22:42:46.846Z,4.50
2019-03-12T22:45:15.030Z,5.10
2019-03-12T22:47:43.092Z,5.22
2019-03-12T22:50:11.283Z,5.60
2019-03-12T22:52:39.646Z,6.72
2019-03-12T22:55:07.895Z,5.92
2019-03-12T22:57:36.027Z,5.05
2019-03-12T23:00:04.868Z,7.53
2019-03-12T23:02:33.345Z,3.95
2019-03-12T23:05:01.745Z,6.87
2019-03-12T23:07:30.355Z,5.42
2019-03-12T23:09:59.018Z,6.33
2019-03-12T23:12:27.028Z,4.20
2019-03-12T23:14:55.767Z,4.95
2019-03-12T23:17:24.874Z,3.58
2019-03-12T23:19:52.884Z,4.87
2019-03-12T23:22:20.954Z,7.92
2019-03-12T23:24:49.045Z,6.85
2019-03-12T23:27:17.719Z,4.30
2019-03-12T23:29:45.767Z,4.78
2019-03-12T23:32:15.428Z,4.60
2019-03-12T23:34:43.436Z,4.17
2019-03-12T23:37:11.460Z,4.87
2019-03-12T23:39:39.508Z,4.12
2019-03-12T23:42:07.653Z,4.95
2019-03-12T23:44:36.336Z,4.85
2019-03-12T23:47:04.353Z,5.53
2019-03-12T23:49:32.717Z,6.00
2019-03-12T23:52:01.112Z,5.12
2019-03-12T23:54:29.819Z,4.03
2019-03-12T23:56:57.889Z,3.80
2019-03-12T23:59:25.943Z,4.00
